Terminal Aerodrome Forecast
Issued by NWS

Home | Current Version | Previous Version | Text Only | Print | Product List | Glossary Off
Versions: 1 2 3 4 5 6 7 8 9 10 11 12 13 14 15 16

000
FTUS43 KGRB 302338
TAFRHI
TAF
KRHI 302338Z 3100/3124 VRB03KT P6SM SCT200
     FM311000 11005KT P6SM SCT070 OVC100 PROB30 3110/3115 -SHRA
      BKN040 OVC070
     FM311500 12009KT P6SM -SHRA SCT035 OVC070
     FM312100 17007KT 6SM -SHRA BR BKN030 OVC070=

USA.gov is the U.S. government's official web portal to all federal, state and local government web resources and services.